CheckWX is a tool to help pilots better visualize weather data.  It is not intended as a substitute for an official pre-flight weather briefing.

23:38:22 UTC

KMIA METAR
Miami International Airport
Miami, Florida, USA
Current

45 mins ago

KMIA 182253Z VRB05KT 10SM FEW030 FEW080 OVC250 28/23 A2988 RMK AO2 SLP119 T02830228
Observed
Oct-18 @ 22:53 UTC
Wind
  • Variable at 5 KTS
Visibility
10 SM
Flight Rules
VFR
Cloud Levels
  • Few at 3,000' AGL
  • Few at 8,000' AGL
  • Overcast at 25,000' AGL
Temperature
28°C / 82°F
Dewpoint
23°C / 73°F
Heat Index
31°C / 87°F
Humidity
74%
Altimeter
29.88" Hg
Pressure
1011.82 hPa
Previous

2 hours ago

KMIA 182153Z COR 14010G16KT 10SM FEW030 OVC250 29/23 A2988 RMK AO2 SLP117 T02890233
Observed
Oct-18 @ 21:53 UTC
Wind
  • 140° at 10 KTS
  • Gusting to 16 KTS
Visibility
10 SM
Flight Rules
VFR
Cloud Levels
  • Few at 3,000' AGL
  • Overcast at 25,000' AGL
Temperature
29°C / 84°F
Dewpoint
23°C / 73°F
Heat Index
32°C / 90°F
Humidity
70%
Altimeter
29.88" Hg
Pressure
1011.82 hPa
Previous

3 hours ago

KMIA 182053Z 14008KT 10SM FEW030 OVC250 29/24 A2987 RMK AO2 SLP114 T02890239 56009
Observed
Oct-18 @ 20:53 UTC
Wind
  • 140° at 8 KTS
Visibility
10 SM
Flight Rules
VFR
Cloud Levels
  • Few at 3,000' AGL
  • Overcast at 25,000' AGL
Temperature
29°C / 84°F
Dewpoint
24°C / 75°F
Heat Index
33°C / 92°F
Humidity
74%
Altimeter
29.87" Hg
Pressure
1011.52 hPa